createdAt,value
2022-10-02T00:01:56.545Z,78.97
2022-10-02T00:04:32.725Z,79.24
2022-10-02T00:07:06.281Z,79.28
2022-10-02T00:09:58.079Z,78.75
2022-10-02T00:12:29.337Z,78.85
2022-10-02T00:15:06.578Z,78.29
2022-10-02T00:17:38.118Z,77.96
2022-10-02T00:20:13.038Z,77.94
2022-10-02T00:22:58.871Z,77.21
2022-10-02T00:25:34.731Z,77.28
2022-10-02T00:28:25.323Z,76.74
2022-10-02T00:31:05.546Z,76.98
2022-10-02T00:33:59.021Z,76.82
2022-10-02T00:37:14.513Z,76.67
2022-10-02T00:40:09.371Z,76.68
2022-10-02T00:42:49.338Z,76.59
2022-10-02T00:45:34.819Z,76.23
2022-10-02T00:48:14.034Z,75.51
2022-10-02T00:51:02.239Z,75.47
2022-10-02T00:53:51.328Z,75.55
2022-10-02T00:56:37.440Z,75.14
2022-10-02T00:59:26.718Z,74.56
2022-10-02T01:01:54.150Z,74.22
2022-10-02T01:04:31.780Z,74.53
2022-10-02T01:06:59.966Z,74.44
2022-10-02T01:09:28.050Z,74.94
2022-10-02T01:11:56.087Z,75.18
2022-10-02T01:14:36.285Z,75.71
2022-10-02T01:17:07.215Z,75.97
2022-10-02T01:19:38.964Z,76.14
2022-10-02T01:22:24.415Z,76.47
2022-10-02T01:24:56.625Z,76.71
2022-10-02T01:27:25.565Z,76.83
2022-10-02T01:30:01.029Z,76.98
2022-10-02T01:32:31.851Z,77.07
2022-10-02T01:35:00.998Z,76.99
2022-10-02T01:37:32.821Z,76.75
2022-10-02T01:40:06.872Z,76.53
2022-10-02T01:42:34.591Z,76.37
2022-10-02T01:45:04.781Z,76.61
2022-10-02T01:48:07.099Z,76.59
2022-10-02T01:51:16.043Z,76.25
2022-10-02T01:54:01.907Z,76.64
2022-10-02T01:56:44.165Z,76.46
2022-10-02T01:59:38.915Z,76.40
2022-10-02T02:02:18.417Z,76.15
2022-10-02T02:04:51.798Z,75.55
2022-10-02T02:07:35.421Z,75.79
2022-10-02T02:10:17.395Z,75.63
2022-10-02T02:12:56.042Z,75.51
2022-10-02T02:15:35.134Z,75.28
2022-10-02T02:18:29.697Z,75.13
2022-10-02T02:21:05.186Z,74.90
2022-10-02T02:23:36.063Z,74.22
2022-10-02T02:26:09.153Z,74.38
2022-10-02T02:28:40.579Z,73.51
2022-10-02T02:31:11.938Z,73.97
2022-10-02T02:33:46.006Z,73.21
2022-10-02T02:36:18.153Z,73.29
2022-10-02T02:38:50.820Z,73.07
2022-10-02T02:41:26.740Z,72.84
2022-10-02T02:44:13.143Z,73.02
2022-10-02T02:47:12.894Z,73.12
2022-10-02T02:50:02.120Z,72.76
2022-10-02T02:52:37.904Z,72.91
2022-10-02T02:55:11.049Z,72.45
2022-10-02T02:57:45.484Z,72.59
2022-10-02T03:00:15.986Z,72.84
2022-10-02T03:02:43.538Z,72.63
2022-10-02T03:05:14.489Z,72.55
2022-10-02T03:07:54.623Z,72.53
2022-10-02T03:10:33.556Z,72.67
2022-10-02T03:13:16.918Z,72.60
2022-10-02T03:16:21.741Z,72.51
2022-10-02T03:19:36.776Z,72.51
2022-10-02T03:22:44.799Z,72.35
2022-10-02T03:25:24.260Z,71.92
2022-10-02T03:28:02.101Z,72.12
2022-10-02T03:30:31.727Z,72.10
2022-10-02T03:33:01.197Z,72.20
2022-10-02T03:35:30.086Z,72.02
2022-10-02T03:38:03.381Z,72.12
2022-10-02T03:40:31.001Z,72.00
2022-10-02T03:42:58.961Z,71.71
2022-10-02T03:45:50.001Z,71.35
2022-10-02T03:48:15.966Z,70.82
2022-10-02T03:50:44.035Z,70.64
2022-10-02T03:53:17.750Z,69.42
2022-10-02T03:56:08.784Z,68.54
2022-10-02T03:58:41.008Z,69.09
2022-10-02T04:01:17.105Z,68.62
2022-10-02T04:03:56.129Z,68.36
2022-10-02T04:06:40.627Z,68.29
2022-10-02T04:09:18.742Z,68.62
2022-10-02T04:12:04.151Z,68.68
2022-10-02T04:14:46.094Z,68.68
2022-10-02T04:17:20.734Z,68.40
2022-10-02T04:19:59.980Z,68.44
2022-10-02T04:22:33.483Z,68.30
2022-10-02T04:25:19.853Z,67.78
2022-10-02T04:27:53.329Z,67.73
2022-10-02T04:30:21.387Z,68.00
2022-10-02T04:32:49.411Z,67.95
2022-10-02T04:35:44.341Z,67.47
2022-10-02T04:38:11.746Z,67.27
2022-10-02T04:40:50.929Z,65.97
2022-10-02T04:43:49.840Z,66.19
2022-10-02T04:46:36.119Z,66.89
2022-10-02T04:49:22.184Z,65.48
2022-10-02T04:52:07.544Z,65.47
2022-10-02T04:54:56.662Z,66.22
2022-10-02T04:57:36.130Z,65.17
2022-10-02T05:00:06.971Z,66.14
2022-10-02T05:02:40.179Z,65.62
2022-10-02T05:05:26.087Z,65.17
2022-10-02T05:08:11.998Z,65.79
2022-10-02T05:11:13.374Z,64.82
2022-10-02T05:13:52.770Z,65.50
2022-10-02T05:16:29.381Z,65.60
2022-10-02T05:19:18.314Z,65.46
2022-10-02T05:22:15.363Z,65.36
2022-10-02T05:25:23.613Z,65.27
2022-10-02T05:28:26.498Z,65.38
2022-10-02T05:31:13.449Z,65.68
2022-10-02T05:34:06.268Z,65.47
2022-10-02T05:36:49.602Z,65.47
2022-10-02T05:39:43.951Z,65.21
2022-10-02T05:42:29.635Z,65.38
2022-10-02T05:45:25.277Z,65.09
2022-10-02T05:48:02.762Z,65.58
2022-10-02T05:50:35.229Z,65.44
2022-10-02T05:53:08.270Z,65.57
2022-10-02T05:56:02.363Z,65.59
2022-10-02T05:58:35.679Z,65.45
2022-10-02T06:01:21.619Z,65.65
2022-10-02T06:04:11.994Z,65.02
2022-10-02T06:06:48.871Z,65.08
2022-10-02T06:09:48.195Z,64.78
2022-10-02T06:12:30.727Z,64.86
2022-10-02T06:15:19.347Z,64.61
2022-10-02T06:17:55.869Z,65.04
2022-10-02T06:20:40.527Z,64.63
2022-10-02T06:23:15.250Z,64.24
2022-10-02T06:26:11.904Z,63.37
2022-10-02T06:28:44.232Z,64.44
2022-10-02T06:31:21.392Z,64.41
2022-10-02T06:33:48.950Z,64.79
2022-10-02T06:36:40.355Z,64.51
2022-10-02T06:39:58.631Z,64.86
2022-10-02T06:42:38.414Z,65.21
2022-10-02T06:45:06.367Z,65.36
2022-10-02T06:47:39.755Z,65.59
2022-10-02T06:50:39.623Z,65.68
2022-10-02T06:53:24.467Z,65.54
2022-10-02T06:56:10.145Z,65.61
2022-10-02T06:59:14.581Z,65.63
2022-10-02T07:02:04.942Z,65.66
2022-10-02T07:04:57.166Z,65.46
2022-10-02T07:07:39.898Z,65.21
2022-10-02T07:10:30.407Z,65.66
2022-10-02T07:13:07.357Z,65.47
2022-10-02T07:16:09.170Z,65.72
2022-10-02T07:18:50.940Z,65.16
2022-10-02T07:21:33.801Z,64.53
2022-10-02T07:24:11.235Z,64.05
2022-10-02T07:26:58.741Z,63.92
2022-10-02T07:29:34.873Z,62.44
2022-10-02T07:32:17.701Z,61.70
2022-10-02T07:35:12.799Z,59.50
2022-10-02T07:38:01.857Z,57.15
2022-10-02T07:40:47.894Z,55.22
2022-10-02T07:43:46.874Z,54.29
2022-10-02T07:46:19.225Z,54.28
2022-10-02T07:49:14.151Z,52.78
2022-10-02T07:51:51.059Z,50.93
2022-10-02T07:54:36.534Z,48.83
2022-10-02T07:57:16.822Z,48.54
2022-10-02T07:59:46.443Z,46.46
2022-10-02T08:02:28.906Z,43.66
2022-10-02T08:05:05.547Z,41.18
2022-10-02T08:07:33.370Z,43.61
2022-10-02T08:10:06.228Z,43.96
2022-10-02T08:12:45.790Z,45.79
2022-10-02T08:15:20.337Z,47.80
2022-10-02T08:18:22.739Z,48.11
2022-10-02T08:20:49.626Z,49.48
2022-10-02T08:23:36.747Z,49.26
2022-10-02T08:26:21.584Z,46.55
2022-10-02T08:28:56.971Z,44.87
2022-10-02T08:31:25.454Z,44.14
2022-10-02T08:33:53.119Z,43.66
2022-10-02T08:36:43.681Z,41.07
2022-10-02T08:39:53.303Z,39.39
2022-10-02T08:42:43.152Z,37.89
2022-10-02T08:45:47.543Z,39.28
2022-10-02T08:48:38.970Z,39.16
2022-10-02T08:51:49.526Z,39.36
2022-10-02T08:54:38.834Z,41.15
2022-10-02T08:57:28.049Z,44.24
2022-10-02T09:00:26.077Z,45.63
2022-10-02T09:02:57.309Z,45.85
2022-10-02T09:05:43.099Z,47.42
2022-10-02T09:08:58.535Z,49.30
2022-10-02T09:12:11.368Z,49.89
2022-10-02T09:14:51.529Z,49.90
2022-10-02T09:17:48.342Z,50.59
2022-10-02T09:20:33.978Z,52.26
2022-10-02T09:23:20.121Z,52.89
2022-10-02T09:26:24.750Z,53.30
2022-10-02T09:29:07.339Z,53.63
2022-10-02T09:31:53.631Z,53.63
2022-10-02T09:34:42.085Z,53.92
2022-10-02T09:37:28.439Z,53.79
2022-10-02T09:40:26.966Z,54.18
2022-10-02T09:43:05.984Z,54.52
2022-10-02T09:45:45.337Z,54.73
2022-10-02T09:48:49.995Z,55.10
2022-10-02T09:51:40.259Z,55.59
2022-10-02T09:54:32.396Z,55.23
2022-10-02T09:57:07.036Z,55.42
2022-10-02T09:59:58.996Z,55.39
2022-10-02T10:02:54.036Z,55.92
2022-10-02T10:05:42.859Z,55.78
2022-10-02T10:09:04.198Z,55.92
2022-10-02T10:11:49.282Z,55.26
2022-10-02T10:14:41.123Z,54.97
2022-10-02T10:17:45.778Z,54.56
2022-10-02T10:20:37.473Z,54.44
2022-10-02T10:23:51.366Z,54.97
2022-10-02T10:26:44.190Z,53.54
2022-10-02T10:29:21.471Z,52.99
2022-10-02T10:32:20.973Z,53.48
2022-10-02T10:35:06.987Z,52.90
2022-10-02T10:38:08.471Z,52.53
2022-10-02T10:40:58.814Z,53.64
2022-10-02T10:43:44.414Z,53.64
2022-10-02T10:46:33.134Z,53.92
2022-10-02T10:49:03.658Z,53.68
2022-10-02T10:51:43.458Z,52.89
2022-10-02T10:54:27.199Z,51.09
2022-10-02T10:57:04.943Z,50.43
2022-10-02T10:59:49.486Z,50.36
2022-10-02T11:02:53.316Z,50.87
2022-10-02T11:05:58.077Z,51.09
2022-10-02T11:08:47.371Z,50.60
2022-10-02T11:11:33.063Z,51.47
2022-10-02T11:14:06.626Z,52.14
2022-10-02T11:17:05.010Z,52.14
2022-10-02T11:20:00.718Z,51.47
2022-10-02T11:22:57.184Z,50.05
2022-10-02T11:25:52.853Z,48.77
2022-10-02T11:28:32.657Z,43.57
2022-10-02T11:31:27.659Z,40.22
2022-10-02T11:34:09.896Z,40.77
2022-10-02T11:36:43.284Z,41.93
2022-10-02T11:39:32.486Z,43.34
2022-10-02T11:42:16.635Z,44.61
2022-10-02T11:45:03.592Z,46.51
2022-10-02T11:47:59.774Z,47.33
2022-10-02T11:50:45.885Z,47.93
2022-10-02T11:53:22.254Z,47.69
2022-10-02T11:56:08.124Z,47.87
2022-10-02T11:58:42.134Z,47.29
2022-10-02T12:01:32.237Z,46.67
2022-10-02T12:04:04.247Z,45.49
2022-10-02T12:07:12.027Z,45.02
2022-10-02T12:09:45.254Z,43.93
2022-10-02T12:12:37.076Z,41.64
2022-10-02T12:15:10.823Z,39.05
2022-10-02T12:17:45.865Z,35.89
2022-10-02T12:21:03.986Z,34.42
2022-10-02T12:24:08.766Z,31.22
2022-10-02T12:26:59.017Z,28.75
2022-10-02T12:30:13.929Z,29.35
2022-10-02T12:32:51.080Z,29.48
2022-10-02T12:35:33.524Z,29.88
2022-10-02T12:38:26.997Z,31.73
2022-10-02T12:41:18.987Z,34.44
2022-10-02T12:43:55.665Z,37.83
2022-10-02T12:46:29.195Z,37.85
2022-10-02T12:49:25.397Z,40.74
2022-10-02T12:51:55.516Z,42.57
2022-10-02T12:55:00.211Z,43.58
2022-10-02T12:58:01.169Z,44.84
2022-10-02T13:00:47.254Z,46.33
2022-10-02T13:03:47.576Z,47.09
2022-10-02T13:07:01.397Z,47.50
2022-10-02T13:10:04.166Z,48.29
2022-10-02T13:12:50.975Z,49.51
2022-10-02T13:15:54.893Z,48.63
2022-10-02T13:18:22.916Z,48.73
2022-10-02T13:21:02.900Z,49.90
2022-10-02T13:23:42.036Z,50.31
2022-10-02T13:26:42.590Z,51.56
2022-10-02T13:29:40.639Z,51.11
2022-10-02T13:32:11.020Z,50.51
2022-10-02T13:35:19.940Z,51.61
2022-10-02T13:38:06.821Z,51.25
2022-10-02T13:40:43.362Z,52.48
2022-10-02T13:43:34.613Z,53.40
2022-10-02T13:46:17.979Z,54.07
2022-10-02T13:48:48.279Z,53.77
2022-10-02T13:51:53.945Z,54.39
2022-10-02T13:54:37.403Z,54.18
2022-10-02T13:57:22.178Z,54.49
2022-10-02T14:00:17.175Z,54.39
2022-10-02T14:03:09.099Z,54.76
2022-10-02T14:05:58.224Z,54.75
2022-10-02T14:08:46.859Z,54.57
2022-10-02T14:11:30.486Z,54.04
2022-10-02T14:14:09.792Z,54.72
2022-10-02T14:16:51.961Z,55.02
2022-10-02T14:19:33.903Z,55.28
2022-10-02T14:22:18.932Z,55.18
2022-10-02T14:25:15.313Z,54.88
2022-10-02T14:27:51.778Z,55.67
2022-10-02T14:30:22.628Z,54.95
2022-10-02T14:33:30.086Z,55.45
2022-10-02T14:36:11.811Z,55.39
2022-10-02T14:39:08.770Z,56.61
2022-10-02T14:42:09.265Z,56.29
2022-10-02T14:45:12.337Z,56.18
2022-10-02T14:51:11.054Z,55.92
2022-10-02T14:53:49.425Z,56.43
2022-10-02T14:56:28.817Z,55.78
2022-10-02T14:59:11.669Z,56.29
2022-10-02T15:01:55.541Z,56.31
2022-10-02T15:04:36.646Z,56.67
2022-10-02T15:07:12.322Z,56.39
2022-10-02T15:09:48.881Z,56.36
2022-10-02T15:12:30.033Z,57.12
2022-10-02T15:15:12.240Z,56.60
2022-10-02T15:17:56.894Z,56.51
2022-10-02T15:20:24.586Z,56.42
2022-10-02T15:23:06.924Z,57.08
2022-10-02T15:25:52.592Z,56.73
2022-10-02T15:28:38.465Z,56.86
2022-10-02T15:31:18.982Z,56.91
2022-10-02T15:34:12.817Z,57.01
2022-10-02T15:37:08.692Z,57.13
2022-10-02T15:39:44.203Z,57.51
2022-10-02T15:42:24.783Z,56.87
2022-10-02T15:45:11.646Z,57.12
2022-10-02T15:48:02.273Z,57.33
2022-10-02T15:50:57.651Z,58.04
2022-10-02T15:53:52.058Z,57.69
2022-10-02T15:56:34.634Z,57.56
2022-10-02T15:59:21.688Z,57.79
2022-10-02T16:02:16.196Z,57.86
2022-10-02T16:05:10.848Z,57.70
2022-10-02T16:07:56.801Z,58.11
2022-10-02T16:10:37.131Z,58.12
2022-10-02T16:13:13.540Z,57.95
2022-10-02T16:16:00.886Z,58.38
2022-10-02T16:19:01.291Z,58.81
2022-10-02T16:21:52.211Z,58.90
2022-10-02T16:25:18.409Z,58.76
2022-10-02T16:28:09.279Z,58.98
2022-10-02T16:30:45.980Z,59.00
2022-10-02T16:33:19.961Z,58.97
2022-10-02T16:36:17.875Z,59.13
2022-10-02T16:38:53.056Z,59.44
2022-10-02T16:41:38.853Z,59.39
2022-10-02T16:44:33.699Z,59.27
2022-10-02T16:47:13.825Z,59.44
2022-10-02T16:49:57.383Z,59.35
2022-10-02T16:52:33.626Z,59.24
2022-10-02T16:55:13.162Z,59.79
2022-10-02T16:57:45.444Z,59.62
2022-10-02T17:00:24.536Z,59.51
2022-10-02T17:03:21.641Z,59.83
2022-10-02T17:05:54.204Z,59.66
2022-10-02T17:08:41.758Z,60.02
2022-10-02T17:11:20.726Z,60.20
2022-10-02T17:14:16.583Z,61.07
2022-10-02T17:17:05.734Z,60.71
2022-10-02T17:19:56.210Z,60.98
2022-10-02T17:22:44.303Z,60.61
2022-10-02T17:25:27.143Z,61.17
2022-10-02T17:28:23.123Z,60.48
2022-10-02T17:30:59.348Z,60.52
2022-10-02T17:33:32.419Z,60.39
2022-10-02T17:36:20.239Z,60.67
2022-10-02T17:39:10.979Z,60.53
2022-10-02T17:41:42.629Z,60.92
2022-10-02T17:44:11.168Z,60.60
2022-10-02T17:46:49.777Z,61.18
2022-10-02T17:49:39.215Z,61.14
2022-10-02T17:52:46.911Z,62.27
2022-10-02T17:55:48.366Z,62.08
2022-10-02T17:58:37.084Z,62.89
2022-10-02T18:01:17.828Z,63.34
2022-10-02T18:04:03.686Z,64.08
2022-10-02T18:07:09.815Z,64.75
2022-10-02T18:09:56.802Z,65.16
2022-10-02T18:12:42.399Z,66.13
2022-10-02T18:15:37.878Z,66.62
2022-10-02T18:18:30.378Z,66.95
2022-10-02T18:21:20.670Z,67.23
2022-10-02T18:23:48.240Z,66.81
2022-10-02T18:26:42.309Z,67.51
2022-10-02T18:29:15.621Z,68.47
2022-10-02T18:32:19.386Z,69.31
2022-10-02T18:35:04.196Z,70.02
2022-10-02T18:37:58.286Z,70.46
2022-10-02T18:40:30.325Z,69.42
2022-10-02T18:43:31.021Z,69.96
2022-10-02T18:46:13.624Z,70.38
2022-10-02T18:48:59.950Z,70.81
2022-10-02T18:52:05.413Z,71.27
2022-10-02T18:54:41.788Z,71.04
2022-10-02T18:57:09.183Z,70.11
2022-10-02T18:59:45.777Z,70.56
2022-10-02T19:03:00.681Z,71.26
2022-10-02T19:05:35.463Z,71.41
2022-10-02T19:08:02.901Z,70.96
2022-10-02T19:10:33.161Z,72.23
2022-10-02T19:13:23.451Z,71.48
2022-10-02T19:15:53.476Z,71.89
2022-10-02T19:18:21.290Z,71.49
2022-10-02T19:21:14.313Z,73.20
2022-10-02T19:23:56.826Z,72.91
2022-10-02T19:26:40.749Z,73.02
2022-10-02T19:29:26.120Z,73.49
2022-10-02T19:31:56.697Z,72.69
2022-10-02T19:34:30.641Z,73.01
2022-10-02T19:37:04.336Z,73.18
2022-10-02T19:39:33.406Z,73.11
2022-10-02T19:42:07.937Z,73.23
2022-10-02T19:44:53.470Z,73.46
2022-10-02T19:47:45.706Z,74.35
2022-10-02T19:50:23.374Z,74.38
2022-10-02T19:52:58.323Z,74.73
2022-10-02T19:55:30.999Z,74.13
2022-10-02T19:58:09.226Z,75.13
2022-10-02T20:00:40.459Z,74.74
2022-10-02T20:03:20.056Z,75.43
2022-10-02T20:05:51.690Z,75.22
2022-10-02T20:08:36.908Z,75.90
2022-10-02T20:11:11.138Z,75.46
2022-10-02T20:13:49.845Z,75.94
2022-10-02T20:16:42.967Z,75.88
2022-10-02T20:19:39.399Z,76.96
2022-10-02T20:22:45.332Z,76.85
2022-10-02T20:25:42.294Z,76.68
2022-10-02T20:28:52.235Z,76.77
2022-10-02T20:31:40.248Z,76.48
2022-10-02T20:34:21.636Z,76.12
2022-10-02T20:37:04.000Z,76.55
2022-10-02T20:39:42.275Z,76.42
2022-10-02T20:42:20.091Z,76.40
2022-10-02T20:44:47.570Z,75.91
2022-10-02T20:47:50.103Z,76.71
2022-10-02T20:50:46.859Z,76.74
2022-10-02T20:53:52.581Z,77.12
2022-10-02T20:56:39.431Z,76.99
2022-10-02T20:59:27.079Z,77.07
2022-10-02T21:02:18.013Z,76.48
2022-10-02T21:05:10.926Z,76.83
2022-10-02T21:08:00.167Z,76.92
2022-10-02T21:10:45.632Z,76.89
2022-10-02T21:13:13.042Z,76.26
2022-10-02T21:16:17.566Z,77.50
2022-10-02T21:19:04.951Z,77.15
2022-10-02T21:21:38.304Z,76.80
2022-10-02T21:24:05.631Z,76.71
2022-10-02T21:26:55.378Z,77.75
2022-10-02T21:30:09.130Z,77.82
2022-10-02T21:32:49.390Z,77.64
2022-10-02T21:35:46.233Z,78.04
2022-10-02T21:38:44.526Z,78.24
2022-10-02T21:41:23.852Z,78.21
2022-10-02T21:44:10.289Z,78.23
2022-10-02T21:46:41.368Z,77.62
2022-10-02T21:49:47.427Z,78.83
2022-10-02T21:52:42.193Z,78.62
2022-10-02T21:55:46.774Z,78.65
2022-10-02T21:58:42.014Z,78.74
2022-10-02T22:02:07.750Z,78.62
2022-10-02T22:04:53.824Z,78.26
2022-10-02T22:07:35.519Z,78.65
2022-10-02T22:10:20.859Z,78.25
2022-10-02T22:13:23.882Z,78.91
2022-10-02T22:15:55.336Z,78.16
2022-10-02T22:18:52.978Z,78.98
2022-10-02T22:21:20.390Z,78.01
2022-10-02T22:24:09.187Z,79.48
2022-10-02T22:27:01.326Z,79.03
2022-10-02T22:29:48.576Z,78.27
2022-10-02T22:33:00.195Z,79.21
2022-10-02T22:35:36.014Z,78.29
2022-10-02T22:38:26.094Z,79.28
2022-10-02T22:41:02.522Z,78.75
2022-10-02T22:43:52.979Z,79.59
2022-10-02T22:46:47.041Z,78.93
2022-10-02T22:49:43.243Z,79.70
2022-10-02T22:52:20.708Z,79.30
2022-10-02T22:55:00.136Z,80.03
2022-10-02T22:57:33.459Z,80.01
2022-10-02T23:00:12.342Z,79.95
2022-10-02T23:03:02.461Z,80.40
2022-10-02T23:06:09.093Z,80.49
2022-10-02T23:08:36.505Z,79.55
2022-10-02T23:11:25.483Z,80.81
2022-10-02T23:14:00.164Z,80.18
2022-10-02T23:16:48.214Z,80.96
2022-10-02T23:19:38.832Z,80.95
2022-10-02T23:22:23.526Z,81.17
2022-10-02T23:25:18.506Z,80.90
2022-10-02T23:28:32.244Z,81.54
2022-10-02T23:31:11.584Z,80.63
2022-10-02T23:34:07.703Z,81.51
2022-10-02T23:36:45.997Z,81.59
2022-10-02T23:39:26.302Z,81.84
2022-10-02T23:41:58.489Z,81.48
2022-10-02T23:44:55.922Z,82.34
2022-10-02T23:47:37.358Z,82.02
2022-10-02T23:50:22.028Z,82.05
2022-10-02T23:53:01.328Z,81.47
2022-10-02T23:56:07.871Z,82.28
2022-10-02T23:59:00.721Z,82.68
